Buffalo Gap, SD

6:38 PM MST on February 06, 2016 (GMT -0700)
HADS | | Change Station
CLOSE
Current Station
Personal Weather Station
Location: Buffalo Gap, SD
Elevation: 3148 ft
Nearby Weather Stations
Active Advisory: High Wind Warning

Elev 3148 ft 43.47 °N, 103.31 °W | Updated 1 hour ago

Clear
Clear
46.0 °F
Feels Like 46.0 °F
N
0.0
Wind Variable Wind from North
Gusts 0.0 mph

Today
High -- | Low -- °F
--% Chance of Precip.
Yesterday
High -- | Low -- °F
Precip. -- in
Pressure 30.01 in
Visibility 10.0 miles
Clouds Clear
Dew Point Not available.
Humidity Not available.
Rainfall in
Snow Depth Not available.
7:04 AM 5:11 PM
Waning Crescent, 3% visible
METAR KRAP 070052Z 33033G46KT 10SM CLR 04/M03 A2993 RMK AO2 PK WND 33046/0043 SLP163 T00391028
Pressure 30.01 in
Visibility 10.0 miles
Clouds Clear
Dew Point Not available.
Humidity Not available.
Rainfall in
Snow Depth Not available.
7:04 AM 5:11 PM
Waning Crescent, 3% visible
METAR KRAP 070052Z 33033G46KT 10SM CLR 04/M03 A2993 RMK AO2 PK WND 33046/0043 SLP163 T00391028

10-Day Weather Forecast

Almanac

Astronomy

Feb. 06, 2016 Rise Set
Actual Time
Civil Twilight
Nautical Twilight
Astronomical Twilight
Moon
Length of Visible Light
Length of Day
Tomorrow will be .
, % of the Moon is Illuminated

Today's Extremes

State Highs State Lows

Community

WunderPhotos

Upload Photos

1,891,120 photos uploaded!

WunderBlog® & News

Nearby

Air Quality

  Air Quality AQ Index Pollutant
Not available.

Snow Depth

Station Depth Elevation

Earthquake Activity

City Distance Mag. Time & Date
Minimum magnitude displayed is 2.5.

Coastal Water Temperatures

Place Temperature

Stations

Nearby Weather Stations

Station Location Temp. Windchill Dew Point Humidity Wind Precip. Elev Updated Type
                   

Watches & Warnings

High Wind Warning
Issued: 1:35 PM MST Feb. 6, 2016 – National Weather Service

... High Wind Warning remains in effect from 5 PM this afternoon
to 8 PM MST Sunday...

* timing... initial strong winds this evening... breezy winds
overnight... and the strongest winds Sunday morning through
Sunday evening.

* Winds... northwest 35 to 45 mph with gusts up to 75 mph.

* Impacts... the high winds can blow down large trees... and
damage roofs... small outbuildings... and signs. Sudden wind
gusts can cause drivers to lose control... especially in
lightweight or high profile vehicles. Strong winds can cause
blowing dust... reduced visibility... and flying debris.